Time;durP1;ratioP1;P1;durP2;ratioP2;P2;SDS_P1;SDS_P2;PMS_P1;PMS_P2;Temp;Humidity;BMP_temperature;BMP_pressure;BME280_temperature;BME280_humidity;BME280_pressure;Samples;Min_cycle;Max_cycle;Signal;HPM_P1;HPM_P2
2022/10/14 00:01:08;;;;;;;29.52;13.75;;;;;;;10.08;100.00;99120.44;4469291;32;20563;-70
2022/10/14 00:03:36;;;;;;;28.92;13.40;;;;;;;10.15;100.00;99119.94;4469006;32;20296;-70
2022/10/14 00:06:05;;;;;;;26.50;13.68;;;;;;;10.11;100.00;99119.31;4469160;32;20489;-70
2022/10/14 00:08:32;;;;;;;25.08;12.95;;;;;;;10.14;100.00;99111.22;4469132;32;20153;-70
2022/10/14 00:11:13;;;;;;;23.42;12.32;;;;;;;10.11;100.00;99107.09;4469190;32;20484;-70
2022/10/14 00:13:40;;;;;;;21.40;12.13;;;;;;;10.20;100.00;99117.75;4467561;32;20092;-70
2022/10/14 00:16:18;;;;;;;26.65;13.40;;;;;;;10.20;100.00;99112.50;4469005;32;20097;-70
2022/10/14 00:18:46;;;;;;;27.77;12.98;;;;;;;10.19;100.00;99114.31;4468949;32;20158;-70
2022/10/14 00:21:13;;;;;;;28.58;13.13;;;;;;;10.16;100.00;99114.56;4468912;32;20166;-70
2022/10/14 00:23:42;;;;;;;27.05;13.70;;;;;;;10.13;100.00;99120.88;4468758;32;20160;-71
2022/10/14 00:26:21;;;;;;;32.08;13.65;;;;;;;10.10;100.00;99109.84;4468775;32;20092;-70
2022/10/14 00:28:49;;;;;;;23.40;11.77;;;;;;;10.14;100.00;99108.59;4469196;32;20115;-70
2022/10/14 00:31:16;;;;;;;29.40;13.75;;;;;;;10.08;100.00;99104.72;4468972;32;20609;-70
2022/10/14 00:33:45;;;;;;;22.95;11.73;;;;;;;10.08;100.00;99109.97;4454524;32;20089;-70
2022/10/14 00:36:15;;;;;;;29.65;12.73;;;;;;;10.11;100.00;99104.47;4468674;32;20096;-70
2022/10/14 00:38:44;;;;;;;26.87;12.05;;;;;;;10.07;100.00;99102.22;4468683;32;20101;-70
2022/10/14 00:41:15;;;;;;;27.83;12.65;;;;;;;10.05;100.00;99102.34;4468585;32;20442;-70
2022/10/14 00:44:05;;;;;;;28.48;12.60;;;;;;;10.11;100.00;99099.22;4468452;32;20077;-70
2022/10/14 00:46:35;;;;;;;27.48;12.73;;;;;;;10.07;100.00;99099.63;4468825;32;20451;-70
2022/10/14 00:49:11;;;;;;;23.87;12.77;;;;;;;10.09;100.00;99098.50;4468510;32;20080;-70
2022/10/14 00:51:40;;;;;;;26.75;13.15;;;;;;;10.08;100.00;99098.62;4467230;32;20100;-70
2022/10/14 00:54:08;;;;;;;25.42;12.55;;;;;;;10.05;100.00;99102.34;4468153;32;20647;-70
2022/10/14 00:56:35;;;;;;;29.20;13.65;;;;;;;10.09;100.00;99093.28;4454228;32;20081;-70
2022/10/14 00:59:05;;;;;;;24.42;13.45;;;;;;;10.08;100.00;99090.78;4468329;32;20100;-70
2022/10/14 01:01:32;;;;;;;27.98;14.05;;;;;;;10.05;100.00;99097.12;4468644;32;20100;-70
2022/10/14 01:03:59;;;;;;;30.35;13.88;;;;;;;10.19;100.00;99092.50;4468042;32;20440;-70
2022/10/14 01:06:41;;;;;;;29.77;14.05;;;;;;;10.12;100.00;99092.19;4469136;32;20127;-70
2022/10/14 01:09:25;;;;;;;33.47;14.80;;;;;;;10.11;100.00;99088.75;4456383;32;20097;-70
2022/10/14 01:12:13;;;;;;;26.30;13.90;;;;;;;10.09;100.00;99090.66;4470843;32;20092;-70
2022/10/14 01:15:03;;;;;;;28.15;14.02;;;;;;;10.08;100.00;99090.78;4470260;32;20085;-70
2022/10/14 01:17:35;;;;;;;28.67;14.20;;;;;;;10.04;100.00;99087.59;4470337;32;20129;-70
2022/10/14 01:20:38;;;;;;;29.70;13.70;;;;;;;10.03;100.00;99093.78;4456501;32;20096;-70
2022/10/14 01:23:25;;;;;;;25.62;13.77;;;;;;;9.97;100.00;99088.22;4406082;32;20145;-70
2022/10/14 01:26:20;;;;;;;27.52;13.95;;;;;;;10.02;100.00;99088.66;4407256;32;20169;-70
2022/10/14 01:28:56;;;;;;;28.20;14.07;;;;;;;9.99;100.00;99086.31;4421295;32;20144;-70
2022/10/14 01:31:28;;;;;;;30.20;13.98;;;;;;;9.89;100.00;99084.44;4421484;32;20292;-70
2022/10/14 01:33:57;;;;;;;33.47;13.90;;;;;;;9.92;100.00;99080.75;4408596;32;20105;-70
2022/10/14 01:36:46;;;;;;;27.17;13.38;;;;;;;9.97;100.00;99083.81;4421528;32;20120;-70
2022/10/14 01:39:25;;;;;;;22.67;12.57;;;;;;;9.92;100.00;99080.75;4421426;32;20145;-70
2022/10/14 01:42:06;;;;;;;29.02;12.68;;;;;;;9.89;100.00;99073.16;4421468;32;20101;-70
2022/10/14 01:44:36;;;;;;;29.63;13.15;;;;;;;9.89;100.00;99070.53;4421196;32;20172;-70
2022/10/14 01:47:08;;;;;;;27.58;13.82;;;;;;;10.01;100.00;99074.75;4409420;32;20169;-70
2022/10/14 01:49:37;;;;;;;26.42;12.88;;;;;;;10.03;100.00;99078.06;4421188;32;20109;-70
2022/10/14 01:52:13;;;;;;;28.40;13.62;;;;;;;10.01;100.00;99066.06;4421542;32;20185;-70
2022/10/14 01:54:42;;;;;;;30.60;13.27;;;;;;;10.01;100.00;99068.69;4408315;32;20105;-70
2022/10/14 01:57:15;;;;;;;26.37;13.32;;;;;;;9.97;100.00;99068.09;4408821;32;20093;-70
2022/10/14 01:59:43;;;;;;;28.20;13.20;;;;;;;10.01;100.00;99066.91;4465040;32;20116;-70
2022/10/14 02:02:11;;;;;;;26.55;12.57;;;;;;;10.05;100.00;99072.72;4471528;32;20108;-70
2022/10/14 02:04:39;;;;;;;29.33;12.50;;;;;;;10.03;100.00;99069.41;4485649;32;20100;-70
2022/10/14 02:07:15;;;;;;;25.27;13.00;;;;;;;10.02;100.00;99065.97;4481760;32;20565;-71
2022/10/14 02:10:07;;;;;;;24.65;12.45;;;;;;;10.03;100.00;99072.03;4470203;32;20084;-70
2022/10/14 02:12:52;;;;;;;24.92;13.10;;;;;;;10.02;100.00;99070.34;4456273;32;20097;-70
2022/10/14 02:15:36;;;;;;;24.67;12.07;;;;;;;9.99;100.00;99067.97;4468528;32;20540;-70
2022/10/14 02:18:09;;;;;;;24.90;12.83;;;;;;;10.05;100.00;99072.72;4455554;32;20114;-70
2022/10/14 02:21:05;;;;;;;18.33;10.82;;;;;;;9.97;100.00;99062.87;4469872;32;20191;-70
2022/10/14 02:23:40;;;;;;;25.42;12.55;;;;;;;10.02;100.00;99060.72;4469001;32;20085;-70
2022/10/14 02:26:08;;;;;;;25.58;11.43;;;;;;;9.98;100.00;99061.94;4458565;32;20190;-70
2022/10/14 02:28:36;;;;;;;22.10;11.52;;;;;;;9.94;100.00;99058.72;4471469;32;20092;-70
2022/10/14 02:31:11;;;;;;;23.20;12.00;;;;;;;9.89;100.00;99060.06;4485372;32;20118;-70
2022/10/14 02:33:45;;;;;;;21.98;10.95;;;;;;;9.90;100.00;99061.72;4485681;32;20092;-70
2022/10/14 02:36:13;;;;;;;22.85;11.05;;;;;;;9.91;100.00;99058.97;4484286;32;20165;-70
2022/10/14 02:38:42;;;;;;;20.12;11.15;;;;;;;9.88;100.00;99058.41;4471619;32;20097;-70
2022/10/14 02:41:13;;;;;;;24.40;11.68;;;;;;;9.92;100.00;99067.66;4471571;32;20152;-70
2022/10/14 02:43:40;;;;;;;23.48;11.80;;;;;;;9.92;100.00;99057.19;4471660;32;20135;-70
2022/10/14 02:46:07;;;;;;;28.83;11.95;;;;;;;9.95;100.00;99054.34;4485744;32;20126;-70
2022/10/14 02:48:34;;;;;;;24.45;12.05;;;;;;;9.95;100.00;99056.94;4471524;32;20096;-70
2022/10/14 02:51:01;;;;;;;28.80;13.15;;;;;;;9.96;100.00;99055.97;4485452;32;20107;-70
2022/10/14 02:53:29;;;;;;;31.05;12.48;;;;;;;9.88;100.00;99058.41;4485692;32;20521;-70
2022/10/14 02:55:57;;;;;;;24.08;13.38;;;;;;;9.80;100.00;99058.22;4485538;32;20088;-70
2022/10/14 02:58:24;;;;;;;24.45;13.05;;;;;;;9.80;100.00;99047.75;4485618;32;20100;-70
2022/10/14 03:00:51;;;;;;;22.77;11.52;;;;;;;9.77;100.00;99047.00;4485244;32;20092;-70
2022/10/14 03:03:19;;;;;;;24.73;12.68;;;;;;;9.85;100.00;99045.56;4485691;32;20097;-70
2022/10/14 03:05:46;;;;;;;24.23;12.07;;;;;;;9.87;100.00;99051.50;4485476;32;20126;-70
2022/10/14 03:08:14;;;;;;;23.50;13.07;;;;;;;9.76;100.00;99048.00;4474596;32;20377;-70
2022/10/14 03:10:45;;;;;;;25.42;12.23;;;;;;;9.79;100.00;99052.12;4469637;32;20121;-70
2022/10/14 03:13:14;;;;;;;22.05;12.18;;;;;;;9.79;100.00;99057.34;4469989;32;20092;-70
2022/10/14 03:15:41;;;;;;;26.35;12.65;;;;;;;9.79;100.00;99053.91;4469742;32;20139;-70
2022/10/14 03:18:09;;;;;;;28.33;12.32;;;;;;;9.85;100.00;99053.41;4469909;32;20358;-70
2022/10/14 03:20:38;;;;;;;27.45;12.57;;;;;;;9.86;100.00;99050.69;4469578;32;20089;-70
2022/10/14 03:23:05;;;;;;;23.05;12.35;;;;;;;9.98;100.00;99054.09;4469807;32;20097;-70
2022/10/14 03:25:33;;;;;;;23.67;13.27;;;;;;;10.06;100.00;99049.03;4469591;32;20126;-70
2022/10/14 03:28:01;;;;;;;23.33;12.55;;;;;;;10.09;100.00;99051.38;4469411;32;20101;-70
2022/10/14 03:30:30;;;;;;;24.10;13.05;;;;;;;10.17;100.00;99049.94;4469067;32;20101;-70
2022/10/14 03:32:57;;;;;;;25.73;12.90;;;;;;;10.22;100.00;99047.75;4469941;32;20089;-70
2022/10/14 03:35:27;;;;;;;24.33;12.95;;;;;;;10.27;100.00;99043.78;4469874;32;20085;-70
2022/10/14 03:37:55;;;;;;;24.33;13.10;;;;;;;10.31;100.00;99044.38;4469759;32;20506;-70
2022/10/14 03:40:23;;;;;;;27.02;13.68;;;;;;;10.37;100.00;99043.91;4469793;32;20102;-71
2022/10/14 03:42:50;;;;;;;25.25;12.52;;;;;;;10.43;100.00;99042.53;4469487;32;20128;-70
2022/10/14 03:45:19;;;;;;;21.48;12.27;;;;;;;10.36;100.00;99042.22;4469340;32;20088;-70
2022/10/14 03:47:46;;;;;;;30.12;13.13;;;;;;;10.31;100.00;99039.16;4469681;32;20449;-70
2022/10/14 03:50:14;;;;;;;23.23;12.73;;;;;;;10.31;100.00;99041.78;4469380;32;20483;-71
2022/10/14 03:52:42;;;;;;;30.83;13.40;;;;;;;10.32;100.00;99039.97;4469543;32;20093;-70
2022/10/14 03:55:14;;;;;;;22.33;11.82;;;;;;;10.32;100.00;99027.69;4469479;32;20124;-70
2022/10/14 03:57:42;;;;;;;24.33;12.23;;;;;;;10.35;100.00;99037.94;4469386;32;20084;-70
2022/10/14 04:00:10;;;;;;;21.92;12.73;;;;;;;10.29;100.00;99027.97;4469261;32;20157;-70
2022/10/14 04:02:39;;;;;;;23.65;13.25;;;;;;;10.26;100.00;99030.84;4469178;32;20169;-70
2022/10/14 04:05:08;;;;;;;27.20;12.27;;;;;;;10.21;100.00;99028.59;4467931;32;20230;-71
2022/10/14 04:07:36;;;;;;;27.73;13.85;;;;;;;10.11;100.00;99028.56;4469041;32;20088;-71
2022/10/14 04:10:04;;;;;;;27.58;12.52;;;;;;;10.07;100.00;99021.09;4469440;32;20097;-71
2022/10/14 04:12:33;;;;;;;22.98;12.13;;;;;;;10.04;100.00;99027.41;4469234;32;20150;-71
2022/10/14 04:15:02;;;;;;;23.00;11.12;;;;;;;10.02;100.00;99029.31;4469411;32;20176;-71
2022/10/14 04:17:30;;;;;;;26.17;13.15;;;;;;;9.98;100.00;99020.06;4468931;32;20462;-71
2022/10/14 04:20:00;;;;;;;27.40;13.38;;;;;;;9.92;100.00;99020.56;4469232;32;20097;-70
2022/10/14 04:22:28;;;;;;;34.67;12.85;;;;;;;9.90;100.00;99020.69;4468774;32;20446;-70
2022/10/14 04:24:56;;;;;;;24.98;13.23;;;;;;;9.86;100.00;99021.88;4469134;32;20138;-70
2022/10/14 04:27:24;;;;;;;27.55;12.13;;;;;;;9.86;100.00;99021.88;4468717;32;20100;-70
2022/10/14 04:29:51;;;;;;;29.98;13.27;;;;;;;9.84;100.00;99015.13;4469163;32;20096;-71
2022/10/14 04:32:20;;;;;;;28.65;13.70;;;;;;;9.77;100.00;99026.09;4468937;32;20104;-71
2022/10/14 04:34:49;;;;;;;27.60;14.55;;;;;;;9.77;100.00;99013.00;4469108;32;20456;-70
2022/10/14 04:37:17;;;;;;;30.62;13.00;;;;;;;9.75;100.00;99014.09;4463842;32;20123;-71
2022/10/14 04:39:44;;;;;;;30.90;14.52;;;;;;;9.67;100.00;99019.94;4468729;32;20101;-71
2022/10/14 04:42:12;;;;;;;30.15;14.32;;;;;;;9.65;100.00;99027.09;4469981;32;20105;-71
2022/10/14 04:44:39;;;;;;;29.25;13.95;;;;;;;9.62;100.00;99016.88;4470821;32;20100;-71
2022/10/14 04:47:09;;;;;;;28.73;14.27;;;;;;;9.61;100.00;99014.38;4470614;32;20135;-70
2022/10/14 04:49:36;;;;;;;40.63;14.77;;;;;;;9.63;100.00;99017.69;4470667;32;20130;-71
2022/10/14 04:52:05;;;;;;;25.23;13.23;;;;;;;9.65;100.00;99015.81;4470333;32;20096;-71
2022/10/14 04:54:33;;;;;;;28.62;14.20;;;;;;;9.59;100.00;99020.56;4470666;32;20149;-71
2022/10/14 04:57:01;;;;;;;29.70;14.60;;;;;;;9.56;100.00;99020.00;4469739;32;20168;-70
2022/10/14 04:59:28;;;;;;;31.80;13.88;;;;;;;9.57;100.00;99026.91;4484485;32;20119;-70
2022/10/14 05:01:56;;;;;;;34.03;13.88;;;;;;;9.63;100.00;99025.53;4485325;32;20096;-71
2022/10/14 05:04:24;;;;;;;32.70;14.30;;;;;;;9.66;100.00;99030.53;4485965;32;20123;-70
2022/10/14 05:06:51;;;;;;;36.90;15.95;;;;;;;9.61;100.00;99025.66;4480886;32;20104;-71
2022/10/14 05:09:18;;;;;;;30.42;15.40;;;;;;;9.54;100.00;99025.34;4480862;32;20096;-71
2022/10/14 05:11:46;;;;;;;31.30;14.75;;;;;;;9.58;100.00;99016.31;4484827;32;20104;-70
2022/10/14 05:14:13;;;;;;;30.90;15.65;;;;;;;9.57;100.00;99019.88;4486422;32;20200;-70
2022/10/14 05:16:41;;;;;;;35.40;15.80;;;;;;;9.58;100.00;99010.22;4485414;32;20124;-70
2022/10/14 05:19:09;;;;;;;30.75;15.60;;;;;;;9.64;100.00;99014.97;4483059;32;20100;-70
2022/10/14 05:21:36;;;;;;;35.30;17.45;;;;;;;9.64;100.00;99016.75;4486175;32;20101;-70
2022/10/14 05:24:06;;;;;;;28.55;14.43;;;;;;;9.66;100.00;99018.31;4486176;32;20100;-70
2022/10/14 05:26:34;;;;;;;30.10;14.75;;;;;;;9.73;100.00;99024.66;4483298;32;20104;-70
2022/10/14 05:29:02;;;;;;;30.00;15.05;;;;;;;9.76;100.00;99028.84;4480292;32;20534;-70
2022/10/14 05:31:29;;;;;;;30.48;14.02;;;;;;;9.83;100.00;99031.78;4486225;32;20092;-70
2022/10/14 05:33:57;;;;;;;28.90;14.65;;;;;;;9.89;100.00;99033.91;4486056;32;20163;-71
2022/10/14 05:36:24;;;;;;;27.70;14.45;;;;;;;9.96;100.00;99035.03;4485444;32;20468;-71
2022/10/14 05:38:55;;;;;;;29.12;13.90;;;;;;;10.03;100.00;99035.38;4485815;32;20190;-71
2022/10/14 05:41:25;;;;;;;35.90;14.52;;;;;;;10.16;100.00;99035.16;4486090;32;20874;-70
2022/10/14 05:43:53;;;;;;;36.22;14.57;;;;;;;10.21;100.00;99039.06;4485825;32;20837;-70
2022/10/14 05:46:20;;;;;;;29.65;13.88;;;;;;;10.32;100.00;99035.56;4484599;32;20092;-70
2022/10/14 05:48:48;;;;;;;25.73;14.35;;;;;;;10.35;100.00;99037.12;4485360;32;20132;-70
2022/10/14 05:51:15;;;;;;;40.80;15.57;;;;;;;10.44;100.00;99041.59;4485522;32;20096;-71
2022/10/14 05:53:46;;;;;;;29.75;14.38;;;;;;;10.46;100.00;99037.03;4485528;32;20481;-71
2022/10/14 05:56:14;;;;;;;33.80;14.60;;;;;;;10.51;100.00;99036.66;4479203;32;20143;-71
2022/10/14 05:58:41;;;;;;;36.20;14.35;;;;;;;10.61;100.00;99040.16;4466552;32;20096;-71
2022/10/14 06:01:10;;;;;;;29.50;13.98;;;;;;;10.62;100.00;99042.63;4468652;32;20807;-71
2022/10/14 06:03:37;;;;;;;33.13;13.62;;;;;;;10.66;100.00;99045.84;4481316;32;20122;-70
2022/10/14 06:06:05;;;;;;;26.92;13.57;;;;;;;10.80;100.00;99040.22;4470691;32;20449;-71
2022/10/14 06:08:32;;;;;;;32.55;14.98;;;;;;;10.94;100.00;99046.09;4474356;32;20111;-71
2022/10/14 06:11:01;;;;;;;27.92;13.85;;;;;;;11.05;100.00;99047.78;4480893;32;20135;-70
2022/10/14 06:13:29;;;;;;;29.77;14.75;;;;;;;11.13;100.00;99056.63;4479848;32;20453;-71
2022/10/14 06:16:01;;;;;;;27.05;14.30;;;;;;;11.26;100.00;99056.37;4477163;32;20154;-71
2022/10/14 06:18:29;;;;;;;29.55;13.90;;;;;;;11.36;100.00;99051.19;4475469;32;20119;-71
2022/10/14 06:20:56;;;;;;;25.05;13.27;;;;;;;11.25;100.00;99057.38;4476553;32;20100;-71
2022/10/14 06:23:23;;;;;;;31.65;13.70;;;;;;;11.21;100.00;99061.22;4483081;32;20155;-69
2022/10/14 06:25:50;;;;;;;34.65;13.43;;;;;;;11.25;100.00;99064.37;4484032;32;20097;-70
2022/10/14 06:28:17;;;;;;;26.15;13.27;;;;;;;11.22;100.00;99069.91;4480506;32;20118;-71
2022/10/14 06:30:52;;;;;;;27.20;14.07;;;;;;;11.27;100.00;99068.53;4477997;32;20096;-72
2022/10/14 06:33:20;;;;;;;26.23;12.63;;;;;;;11.31;100.00;99074.34;4484766;32;20169;-72
2022/10/14 06:35:47;;;;;;;24.23;12.80;;;;;;;11.26;100.00;99073.94;4484959;32;20442;-70
2022/10/14 06:38:14;;;;;;;31.80;13.82;;;;;;;11.39;100.00;99071.87;4481141;32;20475;-71
2022/10/14 06:40:41;;;;;;;23.98;13.27;;;;;;;11.45;100.00;99073.97;4468364;32;20409;-71
2022/10/14 06:43:08;;;;;;;30.15;14.00;;;;;;;11.57;100.00;99076.47;4468608;32;20141;-70
2022/10/14 06:45:36;;;;;;;30.35;13.75;;;;;;;11.71;100.00;99076.91;4475671;32;20161;-71
2022/10/14 06:48:03;;;;;;;33.92;12.98;;;;;;;11.81;100.00;99076.06;4482291;32;20120;-71
2022/10/14 06:50:30;;;;;;;29.00;12.63;;;;;;;11.89;100.00;99073.59;4475733;32;20143;-72
2022/10/14 06:52:57;;;;;;;29.37;13.00;;;;;;;11.99;100.00;99074.47;4484307;32;20122;-71
2022/10/14 06:55:25;;;;;;;28.83;13.05;;;;;;;12.14;100.00;99077.50;4484977;32;20112;-71
2022/10/14 06:57:52;;;;;;;25.27;12.57;;;;;;;12.19;100.00;99077.09;4483766;32;20085;-74
2022/10/14 07:00:19;;;;;;;31.02;12.90;;;;;;;12.27;100.00;99079.84;4470374;32;20122;-73
2022/10/14 07:02:47;;;;;;;22.83;12.32;;;;;;;12.36;100.00;99075.53;4473115;32;20122;-72
2022/10/14 07:05:14;;;;;;;26.48;12.77;;;;;;;12.42;100.00;99085.50;4472150;32;20114;-72
2022/10/14 07:07:41;;;;;;;27.17;12.70;;;;;;;12.49;100.00;99081.34;4476377;32;20104;-72
2022/10/14 07:10:09;;;;;;;21.08;11.68;;;;;;;12.68;100.00;99077.00;4479717;32;20151;-72
2022/10/14 07:12:36;;;;;;;21.25;9.82;;;;;;;12.85;100.00;99078.84;4476652;32;20150;-72
2022/10/14 07:15:04;;;;;;;23.20;12.05;;;;;;;12.84;100.00;99082.47;4475010;32;20092;-73
2022/10/14 07:17:31;;;;;;;23.52;11.68;;;;;;;12.95;100.00;99078.84;4478828;32;20151;-71
2022/10/14 07:19:58;;;;;;;21.70;10.63;;;;;;;12.94;100.00;99075.38;4473095;32;20088;-71
2022/10/14 07:22:25;;;;;;;23.65;10.75;;;;;;;13.14;100.00;99086.63;4472755;32;20154;-71
2022/10/14 07:24:52;;;;;;;23.23;10.65;;;;;;;13.27;100.00;99081.03;4474398;32;20174;-70
2022/10/14 07:27:19;;;;;;;20.30;9.88;;;;;;;13.58;100.00;99087.81;4476760;32;20431;-71
2022/10/14 07:29:47;;;;;;;22.23;11.12;;;;;;;13.91;96.71;99086.31;4472777;32;20105;-72
2022/10/14 07:32:14;;;;;;;20.33;10.00;;;;;;;14.15;97.17;99084.88;4477386;32;20164;-71
2022/10/14 07:34:41;;;;;;;16.95;9.38;;;;;;;14.17;95.45;99085.53;4476611;32;20612;-73
2022/10/14 07:37:08;;;;;;;18.40;10.32;;;;;;;14.18;93.36;99089.84;4472955;32;20646;-72
2022/10/14 07:39:36;;;;;;;18.70;10.32;;;;;;;14.22;93.28;99091.22;4473629;32;20472;-72
2022/10/14 07:42:03;;;;;;;22.48;10.90;;;;;;;14.19;93.86;99091.50;4472801;32;20163;-73
2022/10/14 07:44:30;;;;;;;19.60;10.25;;;;;;;14.34;93.99;99089.16;4475641;32;20096;-73
2022/10/14 07:46:58;;;;;;;29.02;10.23;;;;;;;14.25;92.88;99083.00;4475453;32;20413;-73
2022/10/14 07:49:25;;;;;;;19.48;10.23;;;;;;;14.24;93.97;99081.34;4481158;32;20100;-73
2022/10/14 07:51:52;;;;;;;22.58;10.30;;;;;;;14.44;92.88;99083.78;4474039;32;20130;-74
2022/10/14 07:54:22;;;;;;;21.98;9.52;;;;;;;14.57;91.50;99076.28;4474149;32;20116;-72
2022/10/14 07:56:49;;;;;;;18.00;10.63;;;;;;;14.58;91.35;99075.31;4463935;32;20148;-73
2022/10/14 07:59:18;;;;;;;19.77;9.93;;;;;;;14.58;90.83;99074.47;4474929;32;20104;-72
2022/10/14 08:01:46;;;;;;;22.75;10.32;;;;;;;14.68;90.96;99073.41;4473799;32;20521;-73
2022/10/14 08:04:14;;;;;;;18.42;10.13;;;;;;;14.89;89.67;99072.22;4471176;32;20116;-70
2022/10/14 08:06:41;;;;;;;21.98;10.43;;;;;;;14.93;90.03;99068.28;4483106;32;20464;-73
2022/10/14 08:09:10;;;;;;;19.30;10.73;;;;;;;15.19;89.89;99070.03;4470153;32;20192;-71
2022/10/14 08:11:38;;;;;;;20.23;11.45;;;;;;;15.36;87.51;99077.00;4477613;32;20114;-71
2022/10/14 08:14:06;;;;;;;28.17;12.18;;;;;;;15.46;88.33;99073.41;4471048;32;20159;-71
2022/10/14 08:16:34;;;;;;;33.53;12.93;;;;;;;15.59;88.19;99076.41;4474110;32;20096;-71
2022/10/14 08:19:05;;;;;;;23.40;11.07;;;;;;;15.81;88.80;99076.84;4477391;32;20165;-71
2022/10/14 08:21:40;;;;;;;26.33;12.95;;;;;;;16.06;86.68;99073.19;4477222;32;20519;-72
2022/10/14 08:24:08;;;;;;;21.25;12.65;;;;;;;16.02;85.62;99066.59;4469590;32;20191;-72
2022/10/14 08:26:41;;;;;;;25.25;12.48;;;;;;;15.90;87.11;99067.94;4467403;32;20711;-72
2022/10/14 08:29:10;;;;;;;23.23;12.25;;;;;;;15.82;87.13;99062.63;4454092;32;20160;-71
2022/10/14 08:31:37;;;;;;;21.45;12.75;;;;;;;15.67;86.50;99060.59;4472194;32;20097;-73
2022/10/14 08:34:04;;;;;;;21.83;11.98;;;;;;;15.72;91.80;99063.56;4472689;32;20107;-73
2022/10/14 08:36:32;;;;;;;28.77;13.20;;;;;;;15.73;87.34;99059.09;4477955;32;20152;-72
2022/10/14 08:38:59;;;;;;;28.10;14.60;;;;;;;15.38;92.35;99058.38;4482509;32;20420;-73
2022/10/14 08:41:54;;;;;;;29.25;13.80;;;;;;;15.39;90.88;99057.41;4473854;32;20116;-73
2022/10/14 08:44:24;;;;;;;28.30;13.38;;;;;;;15.47;93.55;99060.03;4472865;32;20131;-72
2022/10/14 08:46:54;;;;;;;40.08;11.90;;;;;;;15.25;90.63;99050.94;4459902;32;20572;-70
2022/10/14 08:49:57;;;;;;;24.40;13.95;;;;;;;15.16;90.93;99052.72;4461651;32;20203;-70
2022/10/14 08:52:30;;;;;;;26.35;14.00;;;;;;;14.86;91.77;99059.34;4414935;32;20149;-70
2022/10/14 08:55:26;;;;;;;24.77;12.80;;;;;;;14.72;93.61;99066.03;4413467;32;20184;-70
2022/10/14 08:57:57;;;;;;;26.17;13.98;;;;;;;14.77;93.36;99062.94;4403660;32;20212;-70
2022/10/14 09:00:26;;;;;;;34.67;12.70;;;;;;;14.97;91.54;99066.97;4413960;32;20177;-70
2022/10/14 09:02:53;;;;;;;39.03;13.98;;;;;;;15.04;91.63;99062.72;4421648;32;20148;-71
2022/10/14 09:05:22;;;;;;;27.52;13.13;;;;;;;15.20;94.03;99061.13;4423933;32;20144;-71
2022/10/14 09:07:53;;;;;;;26.95;12.82;;;;;;;15.38;95.12;99061.88;4403240;32;20136;-71
2022/10/14 09:10:31;;;;;;;24.55;13.45;;;;;;;15.46;94.84;99062.84;4412673;32;20133;-71
2022/10/14 09:13:31;;;;;;;25.27;12.68;;;;;;;15.43;90.11;99070.13;4378313;32;20117;-71
2022/10/14 09:16:35;;;;;;;29.05;13.00;;;;;;;15.46;92.71;99068.97;4415533;32;20497;-71
2022/10/14 09:19:24;;;;;;;29.27;13.65;;;;;;;15.73;92.05;99067.03;4415915;32;20237;-71
2022/10/14 09:21:53;;;;;;;23.52;13.77;;;;;;;15.84;90.11;99065.94;4370634;32;20107;-71
2022/10/14 09:24:23;;;;;;;22.33;12.20;;;;;;;15.82;89.61;99068.75;4372847;32;20146;-70
2022/10/14 09:26:56;;;;;;;30.05;14.50;;;;;;;15.97;92.26;99068.91;4360110;32;20106;-70
2022/10/14 09:29:27;;;;;;;23.42;12.70;;;;;;;16.13;89.68;99076.03;4401379;32;20177;-70
2022/10/14 09:32:14;;;;;;;25.45;14.35;;;;;;;16.05;88.33;99068.91;4412882;32;20599;-70
2022/10/14 09:34:48;;;;;;;27.77;14.35;;;;;;;16.01;89.33;99072.06;4419634;32;20130;-71
2022/10/14 09:37:33;;;;;;;25.55;14.65;;;;;;;16.19;88.75;99067.44;4410173;32;20105;-71
2022/10/14 09:40:28;;;;;;;29.60;15.38;;;;;;;16.25;89.10;99060.66;4407453;32;20152;-71
2022/10/14 09:43:00;;;;;;;26.62;14.55;;;;;;;16.31;92.81;99063.44;4406863;32;20090;-70
2022/10/14 09:45:41;;;;;;;33.80;15.00;;;;;;;16.34;88.80;99061.47;4415773;32;20198;-70
2022/10/14 09:48:14;;;;;;;24.87;14.50;;;;;;;16.24;88.74;99061.63;4410470;32;20740;-70
2022/10/14 09:50:48;;;;;;;24.15;13.65;;;;;;;16.19;90.02;99067.44;4399497;32;20164;-69
2022/10/14 09:53:16;;;;;;;;;;;;;;;16.27;89.01;99064.75;4400979;32;20124;-70
2022/10/14 09:55:49;;;;;;;24.98;14.10;;;;;;;16.39;88.71;99069.72;4420176;32;20008;-70
2022/10/14 09:58:26;;;;;;;27.58;15.10;;;;;;;16.37;93.98;99066.44;4422954;32;20139;-69
2022/10/14 10:00:58;;;;;;;29.23;15.52;;;;;;;16.50;94.37;99070.22;4470929;32;20094;-70
2022/10/14 10:03:31;;;;;;;31.75;16.20;;;;;;;16.37;88.33;99063.78;4469245;32;20194;-70
2022/10/14 10:06:01;;;;;;;29.55;14.65;;;;;;;16.55;92.07;99059.12;4484919;32;20088;-69
2022/10/14 10:08:29;;;;;;;26.92;14.32;;;;;;;16.79;92.96;99062.69;4472537;32;20080;-69
2022/10/14 10:11:02;;;;;;;24.70;15.52;;;;;;;16.73;91.91;99058.06;4472917;32;20084;-69
2022/10/14 10:13:45;;;;;;;28.75;15.57;;;;;;;16.61;90.82;99062.94;4477238;32;20142;-69
2022/10/14 10:16:33;;;;;;;24.92;15.55;;;;;;;16.82;91.22;99057.91;4469781;32;20100;-69
2022/10/14 10:19:22;;;;;;;31.83;15.23;;;;;;;17.01;92.47;99055.87;4483318;32;20105;-69
2022/10/14 10:21:49;;;;;;;28.98;14.65;;;;;;;17.22;89.15;99054.47;4472556;32;20139;-70
2022/10/14 10:24:22;;;;;;;31.67;15.30;;;;;;;17.37;84.09;99058.03;4482501;32;20160;-72
2022/10/14 10:26:54;;;;;;;34.83;16.52;;;;;;;17.07;84.25;99057.84;4474828;32;20147;-70
2022/10/14 10:29:34;;;;;;;32.80;15.98;;;;;;;17.06;84.68;99058.00;4470873;32;20213;-71
2022/10/14 10:32:32;;;;;;;34.58;16.20;;;;;;;17.07;92.96;99047.25;4471831;32;20096;-70
2022/10/14 10:35:28;;;;;;;25.12;13.88;;;;;;;17.24;88.83;99041.88;4470965;32;20152;-71
2022/10/14 10:38:21;;;;;;;24.27;14.00;;;;;;;17.18;87.76;99049.53;4397093;32;20156;-70
2022/10/14 10:41:09;;;;;;;22.60;13.27;;;;;;;17.00;85.24;99044.47;4407918;32;20627;-70
2022/10/14 10:43:56;;;;;;;25.17;13.43;;;;;;;17.36;90.85;99041.28;4413423;32;20196;-70
2022/10/14 10:46:44;;;;;;;35.38;14.40;;;;;;;17.46;83.47;99041.09;4406333;32;20588;-70
2022/10/14 10:49:37;;;;;;;33.28;14.27;;;;;;;17.48;89.12;99036.44;4405037;32;20184;-70
2022/10/14 10:52:15;;;;;;;29.83;14.43;;;;;;;17.26;86.26;99037.22;4410590;32;20184;-70
2022/10/14 10:54:58;;;;;;;26.48;14.25;;;;;;;17.05;89.49;99032.53;4394459;32;20085;-70
2022/10/14 10:57:53;;;;;;;22.23;14.10;;;;;;;17.33;85.30;99027.59;4407287;32;21225;-70
2022/10/14 11:00:22;;;;;;;29.27;13.38;;;;;;;17.52;83.48;99037.75;4411173;32;20534;-70
2022/10/14 11:03:31;;;;;;;22.80;14.45;;;;;;;17.68;86.48;99033.34;4417829;32;20189;-71
2022/10/14 11:12:33;;;;;;;26.83;15.15;;;;;;;18.11;84.10;99025.75;4371266;32;20110;-70
2022/10/14 11:15:04;;;;;;;28.65;13.45;;;;;;;17.80;82.81;99021.31;4393625;32;20122;-72
2022/10/14 11:17:39;;;;;;;19.17;12.82;;;;;;;17.95;80.37;99020.56;4397914;32;20389;-71
2022/10/14 11:20:21;;;;;;;22.83;13.98;;;;;;;17.99;79.45;99013.94;4415189;32;20463;-71
2022/10/14 11:23:03;;;;;;;24.58;13.93;;;;;;;18.06;80.55;99014.84;4420090;32;20140;-71
2022/10/14 11:26:14;;;;;;;26.02;14.02;;;;;;;18.17;83.17;99003.81;4423301;32;20629;-71
2022/10/14 11:28:59;;;;;;;25.33;13.10;;;;;;;18.34;83.27;99003.66;4364355;32;20090;-71
2022/10/14 11:31:40;;;;;;;25.12;13.80;;;;;;;18.11;82.87;99001.87;4363774;32;21217;-71
2022/10/14 11:34:42;;;;;;;23.58;14.02;;;;;;;17.85;83.43;99004.88;4359159;32;20128;-71
2022/10/14 11:37:31;;;;;;;24.25;12.80;;;;;;;17.92;82.08;99008.50;4330086;33;20186;-71
2022/10/14 11:40:30;;;;;;;26.08;13.43;;;;;;;18.15;81.80;98992.53;4314002;33;20535;-71
2022/10/14 11:43:26;;;;;;;25.80;14.65;;;;;;;18.39;79.21;98995.97;4326645;33;20132;-71
2022/10/14 11:46:11;;;;;;;27.40;14.85;;;;;;;18.40;81.68;98985.16;4324390;33;20142;-71